Tangail, Bangladesh
Current Conditions -  °F | °C
As of 5:20 AM on Monday 22 Dec 2014 (Local Time) from VGHS Reporting Station
Haze Haze  
Wind Chill: 61°   Ceiling: Unl
Heat Index: 61°   Visibility: 1.5mi
Dew Point: 57°   Wind: 3mph
Humidity: 88%   Direction: 320°NW
Pressure: 29.91"   Gusts: NA
Location:  24.25°N, 89.92°E
Report Text: VGHS 212320Z 32003KT 2500 BR NSC 16/14 Q1013 TEMPO S/VIS 2000M
Loading
Personal Weather Stations






























Interactive Weather Map New forecast layout! Learn more

10-Day Weather Forecast

Advertisements
Track Severe Weather on mobile